createdAt,value
2018-05-07T00:01:33.218Z,17.75
2018-05-07T00:04:01.482Z,17.63
2018-05-07T00:06:28.931Z,17.61
2018-05-07T00:08:56.352Z,17.46
2018-05-07T00:11:23.789Z,17.47
2018-05-07T00:13:51.306Z,17.39
2018-05-07T00:16:18.699Z,17.38
2018-05-07T00:18:46.137Z,17.33
2018-05-07T00:21:13.588Z,17.39
2018-05-07T00:23:41.026Z,17.35
2018-05-07T00:31:54.418Z,17.28
2018-05-07T00:34:21.902Z,17.27
2018-05-07T00:36:49.333Z,17.17
2018-05-07T00:39:16.825Z,17.21
2018-05-07T00:41:44.249Z,17.21
2018-05-07T00:44:11.718Z,17.18
2018-05-07T00:46:39.161Z,17.09
2018-05-07T00:49:06.645Z,17.13
2018-05-07T00:51:34.088Z,17.02
2018-05-07T00:54:01.578Z,16.98
2018-05-07T00:56:29.009Z,16.95
2018-05-07T00:58:56.479Z,16.95
2018-05-07T01:01:23.917Z,17.00
2018-05-07T01:03:51.360Z,16.97
2018-05-07T01:09:12.195Z,17.05
2018-05-07T01:11:39.646Z,17.05
2018-05-07T01:14:07.104Z,16.96
2018-05-07T01:16:34.556Z,16.90
2018-05-07T01:19:02.018Z,16.77
2018-05-07T01:21:29.477Z,16.80
2018-05-07T01:23:56.950Z,16.73
2018-05-07T01:26:24.448Z,16.65
2018-05-07T01:28:52.034Z,16.71
2018-05-07T01:31:19.507Z,16.62
2018-05-07T01:33:46.983Z,16.65
2018-05-07T01:36:14.427Z,16.58
2018-05-07T01:38:41.905Z,16.68
2018-05-07T01:41:09.364Z,16.74
2018-05-07T01:43:36.802Z,16.62
2018-05-07T01:46:04.290Z,16.65
2018-05-07T01:48:31.777Z,16.61
2018-05-07T01:50:59.222Z,16.61
2018-05-07T01:53:26.680Z,16.52
2018-05-07T01:55:54.118Z,16.52
2018-05-07T01:58:21.600Z,16.39
2018-05-07T02:00:49.060Z,16.28
2018-05-07T02:03:16.486Z,16.27
2018-05-07T02:05:43.913Z,16.28
2018-05-07T02:08:11.368Z,16.22
2018-05-07T02:10:38.781Z,16.23
2018-05-07T02:13:06.243Z,16.25
2018-05-07T02:15:34.329Z,16.19
2018-05-07T02:18:01.804Z,16.07
2018-05-07T02:20:29.261Z,16.11
2018-05-07T02:22:56.735Z,16.13
2018-05-07T02:25:24.181Z,16.12
2018-05-07T02:27:51.718Z,16.07
2018-05-07T02:30:19.200Z,16.08
2018-05-07T02:32:46.637Z,16.08
2018-05-07T02:35:14.120Z,16.12
2018-05-07T02:37:41.568Z,16.10
2018-05-07T02:40:09.031Z,16.15
2018-05-07T02:42:36.464Z,16.11
2018-05-07T02:45:03.889Z,16.04
2018-05-07T02:47:31.410Z,16.09
2018-05-07T02:49:58.847Z,16.10
2018-05-07T02:52:26.320Z,16.02
2018-05-07T02:54:53.752Z,15.90
2018-05-07T02:57:21.209Z,15.81
2018-05-07T02:59:48.693Z,15.76
2018-05-07T03:02:16.150Z,15.76
2018-05-07T03:04:43.598Z,15.62
2018-05-07T03:07:11.038Z,15.60
2018-05-07T03:09:38.471Z,15.58
2018-05-07T03:12:06.007Z,15.65
2018-05-07T03:14:33.356Z,15.64
2018-05-07T03:17:00.804Z,15.52
2018-05-07T03:19:28.282Z,15.59
2018-05-07T03:21:55.911Z,15.53
2018-05-07T03:24:23.358Z,15.50
2018-05-07T03:26:51.000Z,15.41
2018-05-07T03:29:19.389Z,15.47
2018-05-07T03:31:46.829Z,15.45
2018-05-07T03:34:14.279Z,15.34
2018-05-07T03:36:41.717Z,15.34
2018-05-07T03:39:09.182Z,15.32
2018-05-07T03:41:36.612Z,15.25
2018-05-07T03:44:04.738Z,15.10
2018-05-07T03:46:32.187Z,15.02
2018-05-07T03:48:59.657Z,15.10
2018-05-07T03:51:27.111Z,15.06
2018-05-07T03:53:54.646Z,15.04
2018-05-07T03:56:41.437Z,14.96
2018-05-07T03:59:08.887Z,14.91
2018-05-07T04:01:36.328Z,14.88
2018-05-07T04:04:03.759Z,14.82
2018-05-07T04:06:31.228Z,14.82
2018-05-07T04:08:58.747Z,14.79
2018-05-07T04:11:26.205Z,14.74
2018-05-07T04:13:53.641Z,14.78
2018-05-07T04:16:32.752Z,14.82
2018-05-07T04:19:11.961Z,14.84
2018-05-07T04:21:39.375Z,14.97
2018-05-07T04:24:06.822Z,14.97
2018-05-07T04:26:34.300Z,15.02
2018-05-07T04:29:01.734Z,15.07
2018-05-07T04:31:29.170Z,15.06
2018-05-07T04:33:56.605Z,15.03
2018-05-07T04:36:24.082Z,15.04
2018-05-07T04:38:51.617Z,15.11
2018-05-07T04:41:19.081Z,15.14
2018-05-07T04:43:47.614Z,15.17
2018-05-07T04:46:15.082Z,15.14
2018-05-07T04:48:42.584Z,15.16
2018-05-07T04:51:10.041Z,15.10
2018-05-07T04:53:37.510Z,15.18
2018-05-07T04:56:04.956Z,15.17
2018-05-07T04:58:32.416Z,15.16
2018-05-07T05:00:59.842Z,15.17
2018-05-07T05:03:27.278Z,15.19
2018-05-07T05:05:54.736Z,15.23
2018-05-07T05:08:22.191Z,15.18
2018-05-07T05:10:49.636Z,15.15
2018-05-07T05:13:17.063Z,15.25
2018-05-07T05:15:44.515Z,15.33
2018-05-07T05:18:11.962Z,15.36
2018-05-07T05:20:39.394Z,15.30
2018-05-07T05:23:06.880Z,15.42
2018-05-07T05:25:34.334Z,15.48
2018-05-07T05:28:01.796Z,15.47
2018-05-07T05:30:29.247Z,15.54
2018-05-07T05:32:56.714Z,15.53
2018-05-07T05:35:24.193Z,15.59
2018-05-07T05:37:51.736Z,15.65
2018-05-07T05:40:19.196Z,15.71
2018-05-07T05:42:46.748Z,15.73
2018-05-07T05:45:14.237Z,15.75
2018-05-07T05:47:41.695Z,15.79
2018-05-07T05:50:09.458Z,15.84
2018-05-07T05:52:36.854Z,15.90
2018-05-07T05:55:05.075Z,15.96
2018-05-07T05:57:32.695Z,16.01
2018-05-07T06:00:00.331Z,16.05
2018-05-07T06:02:27.790Z,16.11
2018-05-07T06:04:55.223Z,16.12
2018-05-07T06:07:22.681Z,16.15
2018-05-07T06:09:50.120Z,16.20
2018-05-07T06:12:17.627Z,16.24
2018-05-07T06:14:45.310Z,16.23
2018-05-07T06:17:12.762Z,16.21
2018-05-07T06:19:40.282Z,16.25
2018-05-07T06:22:09.422Z,16.17
2018-05-07T06:24:36.874Z,16.20
2018-05-07T06:27:04.328Z,16.23
2018-05-07T06:29:31.826Z,16.29
2018-05-07T06:31:59.269Z,16.36
2018-05-07T06:34:26.711Z,16.50
2018-05-07T06:36:54.252Z,16.57
2018-05-07T06:39:21.928Z,16.60
2018-05-07T06:41:49.361Z,16.62
2018-05-07T06:44:16.830Z,16.60
2018-05-07T06:46:44.309Z,16.64
2018-05-07T06:49:11.715Z,16.69
2018-05-07T06:51:39.159Z,16.79
2018-05-07T06:54:06.607Z,16.94
2018-05-07T06:56:34.044Z,17.13
2018-05-07T06:59:01.491Z,17.27
2018-05-07T07:01:28.959Z,17.35
2018-05-07T07:03:56.455Z,17.41
2018-05-07T07:06:29.015Z,17.47
2018-05-07T07:08:56.452Z,17.55
2018-05-07T07:11:23.935Z,17.57
2018-05-07T07:13:51.450Z,17.61
2018-05-07T07:16:19.002Z,17.70
2018-05-07T07:18:46.411Z,17.77
2018-05-07T07:21:13.943Z,17.79
2018-05-07T07:23:41.400Z,17.88
2018-05-07T07:26:08.862Z,17.94
2018-05-07T07:28:36.318Z,17.99
2018-05-07T07:31:03.809Z,18.05
2018-05-07T07:33:31.342Z,18.13
2018-05-07T07:35:58.848Z,18.22
2018-05-07T07:38:26.329Z,18.26
2018-05-07T07:40:53.821Z,18.34
2018-05-07T07:43:21.253Z,18.46
2018-05-07T07:45:48.724Z,18.50
2018-05-07T07:48:16.154Z,18.56
2018-05-07T07:50:43.632Z,18.56
2018-05-07T07:53:11.093Z,18.58
2018-05-07T07:55:38.550Z,18.66
2018-05-07T07:58:06.010Z,18.74
2018-05-07T08:00:33.481Z,18.82
2018-05-07T08:03:00.978Z,18.89
2018-05-07T08:05:28.491Z,18.90
2018-05-07T08:07:55.941Z,18.96
2018-05-07T08:10:23.402Z,18.96
2018-05-07T08:12:51.573Z,18.92
2018-05-07T08:15:19.032Z,18.84
2018-05-07T08:17:46.490Z,18.92
2018-05-07T08:20:13.954Z,18.98
2018-05-07T08:22:41.517Z,19.03
2018-05-07T08:25:08.956Z,19.14
2018-05-07T08:27:36.419Z,19.17
2018-05-07T08:30:03.888Z,19.22
2018-05-07T08:32:31.379Z,19.21
2018-05-07T08:34:58.845Z,19.24
2018-05-07T08:37:50.002Z,19.27
2018-05-07T08:40:17.463Z,19.32
2018-05-07T08:42:44.901Z,19.42
2018-05-07T08:45:12.409Z,19.45
2018-05-07T08:47:39.906Z,19.53
2018-05-07T08:50:07.411Z,19.57
2018-05-07T08:52:34.953Z,19.62
2018-05-07T08:55:02.485Z,19.62
2018-05-07T08:57:30.037Z,19.64
2018-05-07T08:59:57.793Z,19.71
2018-05-07T09:02:25.306Z,19.83
2018-05-07T09:04:53.440Z,19.93
2018-05-07T09:07:20.905Z,19.98
2018-05-07T09:09:48.379Z,20.01
2018-05-07T09:12:15.917Z,20.09
2018-05-07T09:14:43.424Z,20.15
2018-05-07T09:17:10.883Z,20.20
2018-05-07T09:19:39.272Z,20.31
2018-05-07T09:22:06.779Z,20.39
2018-05-07T09:24:34.344Z,20.45
2018-05-07T09:27:01.817Z,20.52
2018-05-07T09:29:29.279Z,20.58
2018-05-07T09:31:58.660Z,20.63
2018-05-07T09:34:26.204Z,20.70
2018-05-07T09:37:03.361Z,20.81
2018-05-07T09:39:30.761Z,20.90
2018-05-07T09:41:58.243Z,20.95
2018-05-07T09:44:26.004Z,21.04
2018-05-07T09:46:53.491Z,21.16
2018-05-07T09:49:20.951Z,21.27
2018-05-07T09:51:48.416Z,21.34
2018-05-07T09:54:15.859Z,21.41
2018-05-07T09:56:57.297Z,21.48
2018-05-07T09:59:24.650Z,21.57
2018-05-07T10:01:52.128Z,21.62
2018-05-07T10:04:19.582Z,21.67
2018-05-07T10:06:47.062Z,21.75
2018-05-07T10:09:14.521Z,21.80
2018-05-07T10:11:42.013Z,21.87
2018-05-07T10:14:09.440Z,21.93
2018-05-07T10:16:36.895Z,22.01
2018-05-07T10:19:04.346Z,22.04
2018-05-07T10:21:31.850Z,22.11
2018-05-07T10:23:59.340Z,22.16
2018-05-07T10:26:26.800Z,22.29
2018-05-07T10:28:54.306Z,22.43
2018-05-07T10:31:21.812Z,22.43
2018-05-07T10:33:49.254Z,22.55
2018-05-07T10:36:16.767Z,22.62
2018-05-07T10:38:44.215Z,22.67
2018-05-07T10:41:11.745Z,22.79
2018-05-07T10:43:39.522Z,22.94
2018-05-07T10:46:06.970Z,23.07
2018-05-07T10:48:34.429Z,23.17
2018-05-07T10:51:01.893Z,23.27
2018-05-07T10:53:29.347Z,23.29
2018-05-07T10:55:56.843Z,23.37
2018-05-07T10:58:24.277Z,23.35
2018-05-07T11:00:52.611Z,23.49
2018-05-07T11:03:20.097Z,23.71
2018-05-07T11:05:47.552Z,23.91
2018-05-07T11:08:15.042Z,24.02
2018-05-07T11:10:42.495Z,24.25
2018-05-07T11:13:09.967Z,24.38
2018-05-07T11:15:37.489Z,24.62
2018-05-07T11:18:04.999Z,24.92
2018-05-07T11:20:32.451Z,25.28
2018-05-07T11:22:59.920Z,25.41
2018-05-07T11:25:27.416Z,25.36
2018-05-07T11:27:54.821Z,25.52
2018-05-07T11:30:22.281Z,25.51
2018-05-07T11:32:49.755Z,25.76
2018-05-07T11:35:18.199Z,25.62
2018-05-07T11:37:45.660Z,25.81
2018-05-07T11:40:13.413Z,25.95
2018-05-07T11:42:40.933Z,25.95
2018-05-07T11:45:08.410Z,26.11
2018-05-07T11:47:40.856Z,26.22
2018-05-07T11:50:08.275Z,26.33
2018-05-07T11:52:35.751Z,26.25
2018-05-07T11:55:03.219Z,26.30
2018-05-07T11:57:35.661Z,26.46
2018-05-07T12:00:03.136Z,26.49
2018-05-07T12:02:30.673Z,26.67
2018-05-07T12:04:58.057Z,26.84
2018-05-07T12:07:25.719Z,26.98
2018-05-07T12:09:53.195Z,27.10
2018-05-07T12:12:20.647Z,27.17
2018-05-07T12:14:48.195Z,27.26
2018-05-07T12:17:15.761Z,27.25
2018-05-07T12:19:43.190Z,27.12
2018-05-07T12:22:10.663Z,27.46
2018-05-07T12:24:38.486Z,27.60
2018-05-07T12:27:05.953Z,28.00
2018-05-07T12:29:33.746Z,28.28
2018-05-07T12:32:01.219Z,28.36
2018-05-07T12:34:28.819Z,28.19
2018-05-07T12:36:56.329Z,28.27
2018-05-07T12:39:23.447Z,28.46
2018-05-07T12:41:50.501Z,28.72
2018-05-07T12:44:17.515Z,28.54
2018-05-07T12:46:44.738Z,28.74
2018-05-07T12:49:12.133Z,28.78
2018-05-07T12:51:39.159Z,28.83
2018-05-07T12:54:06.231Z,29.11
2018-05-07T12:56:33.239Z,29.43
2018-05-07T12:59:00.313Z,29.35
2018-05-07T13:01:27.534Z,29.12
2018-05-07T13:03:54.561Z,28.73
2018-05-07T13:06:21.599Z,28.36
2018-05-07T13:08:48.631Z,28.41
2018-05-07T13:11:15.716Z,28.17
2018-05-07T13:13:42.787Z,28.18
2018-05-07T13:16:09.881Z,28.21
2018-05-07T13:18:36.866Z,28.23
2018-05-07T13:21:03.979Z,28.20
2018-05-07T13:23:31.043Z,28.05
2018-05-07T13:25:58.299Z,28.07
2018-05-07T13:28:25.508Z,28.08
2018-05-07T13:30:52.527Z,27.89
2018-05-07T13:33:19.521Z,28.10
2018-05-07T13:35:46.653Z,28.07
2018-05-07T13:38:19.097Z,27.98
2018-05-07T13:40:46.126Z,28.02
2018-05-07T13:43:13.898Z,28.03
2018-05-07T13:45:40.937Z,27.91
2018-05-07T13:48:09.371Z,27.97
2018-05-07T13:50:36.483Z,27.90
2018-05-07T13:53:03.518Z,27.78
2018-05-07T13:55:30.617Z,27.78
2018-05-07T13:57:57.740Z,27.75
2018-05-07T14:00:24.758Z,27.72
2018-05-07T14:02:51.778Z,27.74
2018-05-07T14:05:18.782Z,27.78
2018-05-07T14:07:45.850Z,27.81
2018-05-07T14:10:12.902Z,27.77
2018-05-07T14:12:39.975Z,27.69
2018-05-07T14:15:06.990Z,27.62
2018-05-07T14:20:20.089Z,27.51
2018-05-07T14:22:47.432Z,27.52
2018-05-07T14:25:14.466Z,27.46
2018-05-07T14:30:36.857Z,27.40
2018-05-07T14:33:04.806Z,27.39
2018-05-07T14:35:31.969Z,27.31
2018-05-07T14:37:59.007Z,27.22
2018-05-07T14:40:26.041Z,27.20
2018-05-07T14:42:53.047Z,27.16
2018-05-07T14:45:20.041Z,26.98
2018-05-07T14:47:47.041Z,26.91
2018-05-07T14:50:14.105Z,26.83
2018-05-07T14:52:41.075Z,26.84
2018-05-07T14:55:08.101Z,26.84
2018-05-07T14:57:35.187Z,26.84
2018-05-07T15:00:02.301Z,26.72
2018-05-07T15:02:29.351Z,26.76
2018-05-07T15:04:56.340Z,26.64
2018-05-07T15:07:23.359Z,26.53
2018-05-07T15:09:50.438Z,26.43
2018-05-07T15:12:17.729Z,26.34
2018-05-07T15:14:44.698Z,26.19
2018-05-07T15:17:11.927Z,26.10
2018-05-07T15:19:38.940Z,25.95
2018-05-07T15:22:05.980Z,25.81
2018-05-07T15:24:38.818Z,25.71
2018-05-07T15:27:06.825Z,25.56
2018-05-07T15:29:34.552Z,25.40
2018-05-07T15:32:01.918Z,25.39
2018-05-07T15:34:29.370Z,25.29
2018-05-07T15:36:56.355Z,25.27
2018-05-07T15:39:23.380Z,25.19
2018-05-07T15:41:50.698Z,25.23
2018-05-07T15:44:17.793Z,25.22
2018-05-07T15:46:44.788Z,25.16
2018-05-07T15:49:11.815Z,25.16
2018-05-07T15:51:39.019Z,25.15
2018-05-07T15:54:06.064Z,25.12
2018-05-07T15:56:33.087Z,25.15
2018-05-07T15:59:00.089Z,25.01
2018-05-07T16:01:27.094Z,25.01
2018-05-07T16:03:54.073Z,25.05
2018-05-07T16:06:21.760Z,25.07
2018-05-07T16:08:48.802Z,24.96
2018-05-07T16:11:15.820Z,25.03
2018-05-07T16:13:42.892Z,24.95
2018-05-07T16:16:09.939Z,25.00
2018-05-07T16:21:22.507Z,24.93
2018-05-07T16:23:49.716Z,24.89
2018-05-07T16:26:16.748Z,24.87
2018-05-07T16:28:43.747Z,24.86
2018-05-07T16:31:11.099Z,24.85
2018-05-07T16:33:38.157Z,24.83
2018-05-07T16:36:05.202Z,24.79
2018-05-07T16:38:32.364Z,24.79
2018-05-07T16:40:59.372Z,24.83
2018-05-07T16:43:26.586Z,24.84
2018-05-07T16:45:53.602Z,24.77
2018-05-07T16:48:21.420Z,24.75
2018-05-07T16:50:48.427Z,24.67
2018-05-07T16:53:15.667Z,24.59
2018-05-07T16:55:42.923Z,24.59
2018-05-07T16:58:09.941Z,24.62
2018-05-07T17:00:37.844Z,24.60
2018-05-07T17:03:04.853Z,24.60
2018-05-07T17:05:31.908Z,24.58
2018-05-07T17:07:59.195Z,24.57
2018-05-07T17:10:26.188Z,24.56
2018-05-07T17:12:53.498Z,24.52
2018-05-07T17:15:20.866Z,24.54
2018-05-07T17:23:12.338Z,24.47
2018-05-07T17:25:40.529Z,24.43
2018-05-07T17:30:53.464Z,24.46
2018-05-07T17:33:20.744Z,24.40
2018-05-07T17:35:48.935Z,24.38
2018-05-07T17:41:11.360Z,24.33
2018-05-07T17:43:38.612Z,24.31
2018-05-07T17:46:25.294Z,24.32
2018-05-07T17:48:57.924Z,24.29
2018-05-07T17:59:41.799Z,24.16
2018-05-07T18:02:08.894Z,24.09
2018-05-07T18:04:36.799Z,24.09
2018-05-07T18:07:04.523Z,24.14
2018-05-07T18:12:07.714Z,24.12
2018-05-07T18:17:26.747Z,24.04
2018-05-07T18:19:53.865Z,24.01
2018-05-07T18:22:21.124Z,23.96
2018-05-07T18:24:53.858Z,23.93
2018-05-07T18:29:55.139Z,23.84
2018-05-07T18:32:22.240Z,23.82
2018-05-07T18:34:49.566Z,23.75
2018-05-07T18:37:17.568Z,23.71
2018-05-07T18:39:44.887Z,23.68
2018-05-07T18:42:12.014Z,23.68
2018-05-07T18:44:40.335Z,23.66
2018-05-07T18:47:17.425Z,23.59
2018-05-07T18:49:44.927Z,23.56
2018-05-07T18:52:12.270Z,23.55
2018-05-07T18:54:39.966Z,23.50
2018-05-07T18:57:07.831Z,23.48
2018-05-07T19:02:09.286Z,23.42
2018-05-07T19:04:36.430Z,23.43
2018-05-07T19:07:04.390Z,23.44
2018-05-07T19:09:31.364Z,23.33
2018-05-07T19:11:59.550Z,23.29
2018-05-07T19:14:26.644Z,23.31
2018-05-07T19:19:45.304Z,23.28
2018-05-07T19:27:17.025Z,23.19
2018-05-07T19:29:44.986Z,23.15
2018-05-07T19:45:45.488Z,22.87
2018-05-07T19:48:14.749Z,22.79
2018-05-07T19:53:13.837Z,22.69
2018-05-07T19:55:41.937Z,22.60
2018-05-07T19:58:29.889Z,22.64
2018-05-07T20:03:54.515Z,22.59
2018-05-07T20:12:12.152Z,22.49
2018-05-07T20:14:57.339Z,22.48
2018-05-07T20:22:43.331Z,22.28
2018-05-07T20:25:11.448Z,22.27
2018-05-07T20:27:41.145Z,22.28
2018-05-07T20:43:34.139Z,22.04
2018-05-07T20:46:02.877Z,22.02
2018-05-07T20:48:32.948Z,21.93
2018-05-07T20:51:00.667Z,21.90
2018-05-07T20:53:28.525Z,21.90
2018-05-07T20:55:56.285Z,21.86
2018-05-07T20:58:32.899Z,21.79
2018-05-07T21:00:59.911Z,21.78
2018-05-07T21:03:26.886Z,21.75
2018-05-07T21:05:53.996Z,21.79
2018-05-07T21:08:21.957Z,21.74
2018-05-07T21:10:49.739Z,21.77
2018-05-07T21:13:17.694Z,21.75
2018-05-07T21:15:48.553Z,21.68
2018-05-07T21:18:23.023Z,21.61
2018-05-07T21:23:24.011Z,21.51
2018-05-07T21:25:51.865Z,21.48
2018-05-07T21:33:49.685Z,21.40
2018-05-07T21:36:22.505Z,21.37
2018-05-07T21:38:56.532Z,21.33
2018-05-07T21:41:24.694Z,21.32
2018-05-07T21:43:53.277Z,21.29
2018-05-07T21:46:20.254Z,21.30
2018-05-07T21:49:01.685Z,21.28
2018-05-07T21:51:29.675Z,21.24
2018-05-07T21:53:59.254Z,21.21
2018-05-07T21:56:26.931Z,21.15
2018-05-07T21:58:57.207Z,21.06
2018-05-07T22:01:26.171Z,21.03
2018-05-07T22:03:53.861Z,21.04
2018-05-07T22:06:21.343Z,21.02
2018-05-07T22:08:58.426Z,21.06
2018-05-07T22:11:25.903Z,20.96
2018-05-07T22:13:53.583Z,20.97
2018-05-07T22:16:23.467Z,20.85
2018-05-07T22:25:57.851Z,20.66
2018-05-07T22:31:17.902Z,20.49
2018-05-07T22:33:48.904Z,20.42
2018-05-07T22:41:54.057Z,20.31
2018-05-07T22:44:22.122Z,20.34
2018-05-07T22:53:08.064Z,20.19
2018-05-07T23:12:50.244Z,19.94
2018-05-07T23:17:59.838Z,19.92
2018-05-07T23:20:28.561Z,19.94
2018-05-07T23:22:59.598Z,19.90
2018-05-07T23:25:27.386Z,19.90
2018-05-07T23:28:00.103Z,19.73
2018-05-07T23:30:27.665Z,19.64
2018-05-07T23:32:55.334Z,19.65
2018-05-07T23:35:23.783Z,19.69
2018-05-07T23:37:51.239Z,19.56
2018-05-07T23:40:18.737Z,19.62
2018-05-07T23:42:47.073Z,19.58
2018-05-07T23:45:14.513Z,19.61
2018-05-07T23:47:42.240Z,19.60
2018-05-07T23:50:09.715Z,19.59
2018-05-07T23:52:37.211Z,19.51
2018-05-07T23:55:04.681Z,19.48
2018-05-07T23:57:32.179Z,19.33
2018-05-07T23:59:59.673Z,19.31
